ACA407 CYUL-CYYZ
Flight info
| Callsign | ACA407 |
|---|---|
| Flight time | 0h 50m |
| Altitude | 28000 |
| Route | BOBKI DCT MELTI DCT TORNI RAGID6 |
| Aircraft | A320/M-SDE3FGHIRWY/LB1 |
Departure
| Time | 2026-05-04 15:30 |
|---|---|
| Airport | Montreal / Pierre Elliott Trudeau International Airport (CYUL) |
Arrival
| Time | 2026-05-04 16:20 |
|---|---|
| Airport | Toronto Pearson International Airport (CYYZ) |
| Time | Latitude | Longitude | Altitude | Speed | Heading |
|---|---|---|---|---|---|
| 2026-05-04 15:05 | 45.45880 | -73.74602 | 112 ft | 0 kts | 177° |
| 2026-05-04 15:19 | 45.45879 | -73.74602 | 116 ft | 0 kts | 177° |
| 2026-05-04 15:20 | 45.45894 | -73.74603 | 107 ft | 2 kts | 177° |
| 2026-05-04 15:20 | 45.45909 | -73.74604 | 115 ft | 2 kts | 177° |
| 2026-05-04 15:20 | 45.45926 | -73.74605 | 112 ft | 2 kts | 177° |
| 2026-05-04 15:21 | 45.45943 | -73.74607 | 113 ft | 2 kts | 139° |
| 2026-05-04 15:21 | 45.45951 | -73.74622 | 113 ft | 0 kts | 86° |
| 2026-05-04 15:21 | 45.45950 | -73.74636 | 113 ft | 0 kts | 86° |
| 2026-05-04 15:23 | 45.45953 | -73.74616 | 114 ft | 9 kts | 75° |
| 2026-05-04 15:23 | 45.46000 | -73.74431 | 114 ft | 24 kts | 71° |
| 2026-05-04 15:23 | 45.45980 | -73.74307 | 116 ft | 11 kts | 121° |
| 2026-05-04 15:24 | 45.46108 | -73.74098 | 115 ft | 26 kts | 42° |
| 2026-05-04 15:24 | 45.46369 | -73.73757 | 112 ft | 26 kts | 43° |
| 2026-05-04 15:25 | 45.46500 | -73.73587 | 115 ft | 25 kts | 42° |
| 2026-05-04 15:25 | 45.46625 | -73.73422 | 111 ft | 24 kts | 42° |
| 2026-05-04 15:25 | 45.46734 | -73.73281 | 114 ft | 23 kts | 42° |
| 2026-05-04 15:26 | 45.46961 | -73.72980 | 113 ft | 26 kts | 44° |
| 2026-05-04 15:26 | 45.47097 | -73.72805 | 115 ft | 26 kts | 41° |
| 2026-05-04 15:26 | 45.47344 | -73.72483 | 115 ft | 23 kts | 43° |
| 2026-05-04 15:27 | 45.47456 | -73.72334 | 115 ft | 21 kts | 43° |
| 2026-05-04 15:27 | 45.47647 | -73.72082 | 116 ft | 19 kts | 43° |
| 2026-05-04 15:28 | 45.47806 | -73.71812 | 115 ft | 18 kts | 114° |
| 2026-05-04 15:28 | 45.47727 | -73.71681 | 115 ft | 17 kts | 134° |
| 2026-05-04 15:28 | 45.47637 | -73.71690 | 116 ft | 9 kts | 223° |
| 2026-05-04 15:29 | 45.47416 | -73.71982 | 114 ft | 81 kts | 223° |
| 2026-05-04 15:30 | 45.44177 | -73.76261 | 1881 ft | 189 kts | 226° |
| 2026-05-04 15:30 | 45.40917 | -73.80353 | 3786 ft | 234 kts | 224° |
| 2026-05-04 15:31 | 45.38456 | -73.83651 | 4908 ft | 241 kts | 242° |
| 2026-05-04 15:31 | 45.37787 | -73.85791 | 4991 ft | 235 kts | 260° |
| 2026-05-04 15:32 | 45.37927 | -73.92810 | 5936 ft | 242 kts | 275° |
| 2026-05-04 15:32 | 45.38272 | -73.97278 | 8030 ft | 240 kts | 275° |
| 2026-05-04 15:33 | 45.38639 | -74.02039 | 10077 ft | 243 kts | 275° |
| 2026-05-04 15:34 | 45.39254 | -74.10191 | 11294 ft | 309 kts | 276° |
| 2026-05-04 15:34 | 45.39484 | -74.13274 | 11982 ft | 317 kts | 276° |
| 2026-05-04 15:34 | 45.39952 | -74.19561 | 13536 ft | 326 kts | 277° |
| 2026-05-04 15:35 | 45.40443 | -74.26065 | 14992 ft | 334 kts | 277° |
| 2026-05-04 15:35 | 45.40690 | -74.29373 | 15714 ft | 337 kts | 277° |
| 2026-05-04 15:35 | 45.40935 | -74.32720 | 16355 ft | 342 kts | 278° |
| 2026-05-04 15:36 | 45.41430 | -74.39532 | 17758 ft | 349 kts | 278° |
| 2026-05-04 15:36 | 45.41523 | -74.41836 | 18190 ft | 354 kts | 272° |
| 2026-05-04 15:36 | 45.41312 | -74.45041 | 18732 ft | 361 kts | 263° |
| 2026-05-04 15:37 | 45.40739 | -74.48544 | 19325 ft | 365 kts | 261° |
| 2026-05-04 15:37 | 45.40140 | -74.52085 | 19913 ft | 368 kts | 261° |
| 2026-05-04 15:37 | 45.39544 | -74.55648 | 20478 ft | 371 kts | 262° |
| 2026-05-04 15:37 | 45.38943 | -74.59247 | 21032 ft | 374 kts | 262° |
| 2026-05-04 15:38 | 45.38336 | -74.62866 | 21571 ft | 378 kts | 262° |
| 2026-05-04 15:38 | 45.37723 | -74.66519 | 22092 ft | 381 kts | 262° |
| 2026-05-04 15:38 | 45.37115 | -74.70152 | 22596 ft | 384 kts | 262° |
| 2026-05-04 15:38 | 45.36490 | -74.73870 | 23086 ft | 387 kts | 262° |
| 2026-05-04 15:39 | 45.35858 | -74.77610 | 23510 ft | 390 kts | 262° |
| 2026-05-04 15:39 | 45.35218 | -74.81375 | 23905 ft | 393 kts | 262° |
| 2026-05-04 15:39 | 45.33919 | -74.88989 | 24663 ft | 398 kts | 262° |
| 2026-05-04 15:40 | 45.33263 | -74.92827 | 25035 ft | 400 kts | 262° |
| 2026-05-04 15:40 | 45.32600 | -74.96689 | 25403 ft | 403 kts | 262° |
| 2026-05-04 15:40 | 45.31939 | -75.00517 | 25766 ft | 405 kts | 262° |
| 2026-05-04 15:40 | 45.31263 | -75.04423 | 26122 ft | 407 kts | 262° |
| 2026-05-04 15:41 | 45.30583 | -75.08349 | 26461 ft | 409 kts | 262° |
| 2026-05-04 15:41 | 45.29897 | -75.12289 | 26804 ft | 412 kts | 262° |
| 2026-05-04 15:41 | 45.29205 | -75.16251 | 27128 ft | 414 kts | 262° |
| 2026-05-04 15:41 | 45.28510 | -75.20241 | 27409 ft | 416 kts | 262° |
| 2026-05-04 15:42 | 45.27811 | -75.24249 | 27677 ft | 418 kts | 262° |
| 2026-05-04 15:42 | 45.27109 | -75.28260 | 27753 ft | 419 kts | 262° |
| 2026-05-04 15:42 | 45.26405 | -75.32270 | 27755 ft | 418 kts | 262° |
| 2026-05-04 15:42 | 45.25701 | -75.36279 | 27753 ft | 418 kts | 262° |
| 2026-05-04 15:43 | 45.25003 | -75.40239 | 27756 ft | 418 kts | 262° |
| 2026-05-04 15:43 | 45.24295 | -75.44246 | 27754 ft | 418 kts | 262° |
| 2026-05-04 15:43 | 45.23585 | -75.48259 | 27726 ft | 418 kts | 262° |
| 2026-05-04 15:43 | 45.22871 | -75.52275 | 27748 ft | 419 kts | 262° |
| 2026-05-04 15:44 | 45.22159 | -75.56288 | 27751 ft | 419 kts | 262° |
| 2026-05-04 15:44 | 45.21446 | -75.60296 | 27745 ft | 419 kts | 262° |
| 2026-05-04 15:44 | 45.20727 | -75.64314 | 27726 ft | 419 kts | 262° |
| 2026-05-04 15:44 | 45.20034 | -75.68173 | 27728 ft | 418 kts | 262° |
| 2026-05-04 15:45 | 45.19322 | -75.72121 | 27733 ft | 418 kts | 262° |
| 2026-05-04 15:45 | 45.18604 | -75.76120 | 27735 ft | 418 kts | 262° |
| 2026-05-04 15:45 | 45.17889 | -75.80118 | 27735 ft | 418 kts | 262° |
| 2026-05-04 15:45 | 45.17171 | -75.84119 | 27737 ft | 418 kts | 262° |
| 2026-05-04 15:46 | 45.16453 | -75.88118 | 27731 ft | 418 kts | 262° |
| 2026-05-04 15:46 | 45.15731 | -75.92110 | 27736 ft | 418 kts | 261° |
| 2026-05-04 15:46 | 45.15006 | -75.96095 | 27744 ft | 418 kts | 261° |
| 2026-05-04 15:46 | 45.14357 | -75.99645 | 27750 ft | 418 kts | 261° |
| 2026-05-04 15:47 | 45.13626 | -76.03640 | 27749 ft | 418 kts | 261° |
| 2026-05-04 15:47 | 45.12892 | -76.07626 | 27732 ft | 418 kts | 261° |
| 2026-05-04 15:47 | 45.12157 | -76.11615 | 27710 ft | 418 kts | 261° |
| 2026-05-04 15:47 | 45.11434 | -76.15548 | 27758 ft | 419 kts | 261° |
| 2026-05-04 15:48 | 45.10700 | -76.19547 | 27758 ft | 419 kts | 261° |
| 2026-05-04 15:48 | 45.09771 | -76.23529 | 27768 ft | 433 kts | 253° |
| 2026-05-04 15:48 | 45.06885 | -76.31206 | 27769 ft | 444 kts | 247° |
| 2026-05-04 15:49 | 45.05371 | -76.35035 | 27772 ft | 445 kts | 247° |
| 2026-05-04 15:49 | 45.03856 | -76.38863 | 27772 ft | 445 kts | 247° |
| 2026-05-04 15:49 | 45.02363 | -76.42640 | 27775 ft | 445 kts | 247° |
| 2026-05-04 15:49 | 45.00850 | -76.46467 | 27774 ft | 445 kts | 247° |
| 2026-05-04 15:50 | 44.99337 | -76.50290 | 27776 ft | 445 kts | 247° |
| 2026-05-04 15:50 | 44.97824 | -76.54108 | 27771 ft | 445 kts | 246° |
| 2026-05-04 15:50 | 44.96305 | -76.57929 | 27763 ft | 445 kts | 246° |
| 2026-05-04 15:50 | 44.94780 | -76.61750 | 27760 ft | 445 kts | 246° |
| 2026-05-04 15:51 | 44.93254 | -76.65561 | 27758 ft | 445 kts | 246° |
| 2026-05-04 15:51 | 44.91733 | -76.69372 | 27759 ft | 445 kts | 246° |
| 2026-05-04 15:51 | 44.90211 | -76.73184 | 27765 ft | 445 kts | 246° |
| 2026-05-04 15:51 | 44.88691 | -76.76995 | 27769 ft | 445 kts | 246° |
| 2026-05-04 15:52 | 44.87190 | -76.80755 | 27761 ft | 445 kts | 246° |
| 2026-05-04 15:52 | 44.85663 | -76.84553 | 27763 ft | 445 kts | 246° |
| 2026-05-04 15:52 | 44.84130 | -76.88348 | 27770 ft | 445 kts | 246° |
| 2026-05-04 15:52 | 44.82592 | -76.92148 | 27752 ft | 445 kts | 246° |
| 2026-05-04 15:53 | 44.81061 | -76.95936 | 27747 ft | 445 kts | 246° |
| 2026-05-04 15:53 | 44.79529 | -76.99734 | 27735 ft | 445 kts | 246° |
| 2026-05-04 15:53 | 44.78002 | -77.03527 | 27741 ft | 444 kts | 246° |
| 2026-05-04 15:53 | 44.76478 | -77.07314 | 27748 ft | 444 kts | 246° |
| 2026-05-04 15:54 | 44.74955 | -77.11095 | 27753 ft | 444 kts | 246° |
| 2026-05-04 15:54 | 44.73428 | -77.14877 | 27757 ft | 444 kts | 246° |
| 2026-05-04 15:54 | 44.71915 | -77.18615 | 27758 ft | 444 kts | 246° |
| 2026-05-04 15:54 | 44.70382 | -77.22384 | 27759 ft | 444 kts | 246° |
| 2026-05-04 15:55 | 44.68848 | -77.26148 | 27756 ft | 444 kts | 245° |
| 2026-05-04 15:55 | 44.67311 | -77.29916 | 27746 ft | 444 kts | 245° |
| 2026-05-04 15:55 | 44.65776 | -77.33675 | 27752 ft | 444 kts | 245° |
| 2026-05-04 15:55 | 44.64235 | -77.37442 | 27747 ft | 444 kts | 245° |
| 2026-05-04 15:56 | 44.62700 | -77.41200 | 27749 ft | 444 kts | 245° |
| 2026-05-04 15:56 | 44.61163 | -77.44963 | 27750 ft | 444 kts | 245° |
| 2026-05-04 15:56 | 44.59627 | -77.48723 | 27740 ft | 444 kts | 245° |
| 2026-05-04 15:56 | 44.58087 | -77.52479 | 27756 ft | 444 kts | 245° |
| 2026-05-04 15:57 | 44.56542 | -77.56240 | 27756 ft | 443 kts | 245° |
| 2026-05-04 15:57 | 44.54997 | -77.59986 | 27756 ft | 444 kts | 245° |
| 2026-05-04 15:57 | 44.53449 | -77.63730 | 27755 ft | 443 kts | 245° |
| 2026-05-04 15:57 | 44.51901 | -77.67470 | 27736 ft | 443 kts | 245° |
| 2026-05-04 15:58 | 44.50357 | -77.71208 | 27738 ft | 443 kts | 245° |
| 2026-05-04 15:58 | 44.48816 | -77.74943 | 27753 ft | 438 kts | 245° |
| 2026-05-04 15:58 | 44.47297 | -77.78607 | 27770 ft | 432 kts | 245° |
| 2026-05-04 15:58 | 44.45793 | -77.82224 | 27768 ft | 429 kts | 245° |
| 2026-05-04 15:59 | 44.44285 | -77.85843 | 27768 ft | 429 kts | 245° |
| 2026-05-04 15:59 | 44.42782 | -77.89444 | 27772 ft | 428 kts | 245° |
| 2026-05-04 15:59 | 44.41279 | -77.93051 | 27772 ft | 428 kts | 245° |
| 2026-05-04 15:59 | 44.39780 | -77.96645 | 27758 ft | 428 kts | 245° |
| 2026-05-04 16:00 | 44.38296 | -78.00194 | 27230 ft | 426 kts | 244° |
| 2026-05-04 16:00 | 44.36801 | -78.03751 | 26380 ft | 421 kts | 244° |
| 2026-05-04 16:00 | 44.35321 | -78.07264 | 25559 ft | 417 kts | 244° |
| 2026-05-04 16:00 | 44.33854 | -78.10757 | 24684 ft | 415 kts | 244° |
| 2026-05-04 16:01 | 44.32396 | -78.14241 | 23786 ft | 415 kts | 244° |
| 2026-05-04 16:01 | 44.30931 | -78.17743 | 22635 ft | 419 kts | 244° |
| 2026-05-04 16:01 | 44.29453 | -78.21267 | 21611 ft | 419 kts | 243° |
| 2026-05-04 16:01 | 44.27987 | -78.24748 | 20761 ft | 415 kts | 243° |
| 2026-05-04 16:02 | 44.26526 | -78.28208 | 19900 ft | 412 kts | 242° |
| 2026-05-04 16:02 | 44.25067 | -78.31649 | 19047 ft | 410 kts | 242° |
| 2026-05-04 16:02 | 44.22168 | -78.38466 | 17333 ft | 405 kts | 242° |
| 2026-05-04 16:03 | 44.20763 | -78.41755 | 16796 ft | 395 kts | 242° |
| 2026-05-04 16:03 | 44.19366 | -78.45033 | 16039 ft | 391 kts | 242° |
| 2026-05-04 16:03 | 44.17986 | -78.48285 | 15309 ft | 388 kts | 242° |
| 2026-05-04 16:03 | 44.16619 | -78.51501 | 14616 ft | 384 kts | 242° |
| 2026-05-04 16:04 | 44.15248 | -78.54724 | 13922 ft | 380 kts | 242° |
| 2026-05-04 16:04 | 44.12582 | -78.60956 | 12556 ft | 371 kts | 242° |
| 2026-05-04 16:04 | 44.11271 | -78.64012 | 11921 ft | 364 kts | 242° |
| 2026-05-04 16:05 | 44.09983 | -78.67019 | 11286 ft | 358 kts | 242° |
| 2026-05-04 16:05 | 44.08734 | -78.69927 | 11090 ft | 340 kts | 242° |
| 2026-05-04 16:05 | 44.06546 | -78.75001 | 10852 ft | 308 kts | 242° |
| 2026-05-04 16:06 | 44.05469 | -78.77497 | 10713 ft | 294 kts | 242° |
| 2026-05-04 16:06 | 44.02368 | -78.83250 | 10214 ft | 272 kts | 231° |
| 2026-05-04 16:07 | 44.00675 | -78.85793 | 9928 ft | 269 kts | 231° |
| 2026-05-04 16:07 | 43.96852 | -78.91523 | 9553 ft | 269 kts | 231° |
| 2026-05-04 16:08 | 43.95585 | -78.93423 | 9338 ft | 269 kts | 231° |
| 2026-05-04 16:08 | 43.91769 | -78.99129 | 8069 ft | 264 kts | 230° |
| 2026-05-04 16:09 | 43.89332 | -79.02763 | 7588 ft | 248 kts | 230° |
| 2026-05-04 16:09 | 43.87353 | -79.06354 | 7269 ft | 225 kts | 250° |
| 2026-05-04 16:10 | 43.87060 | -79.09899 | 6737 ft | 221 kts | 270° |
| 2026-05-04 16:11 | 43.87213 | -79.16183 | 5949 ft | 214 kts | 269° |
| 2026-05-04 16:11 | 43.87257 | -79.18220 | 5718 ft | 214 kts | 269° |
| 2026-05-04 16:12 | 43.87393 | -79.24426 | 5049 ft | 214 kts | 268° |
| 2026-05-04 16:12 | 43.87257 | -79.30385 | 4385 ft | 208 kts | 248° |
| 2026-05-04 16:13 | 43.85570 | -79.33576 | 3955 ft | 209 kts | 227° |
| 2026-05-04 16:13 | 43.83548 | -79.36472 | 3543 ft | 206 kts | 227° |
| 2026-05-04 16:14 | 43.81683 | -79.39127 | 3411 ft | 181 kts | 226° |
| 2026-05-04 16:14 | 43.80096 | -79.41392 | 3285 ft | 164 kts | 228° |
| 2026-05-04 16:15 | 43.77988 | -79.44461 | 3069 ft | 133 kts | 228° |
| 2026-05-04 16:16 | 43.76748 | -79.46275 | 3012 ft | 129 kts | 229° |
| 2026-05-04 16:16 | 43.74878 | -79.48996 | 2646 ft | 130 kts | 227° |
| 2026-05-04 16:17 | 43.73668 | -79.50798 | 2403 ft | 128 kts | 227° |
| 2026-05-04 16:18 | 43.71823 | -79.53448 | 1791 ft | 131 kts | 226° |
| 2026-05-04 16:18 | 43.71218 | -79.54360 | 1498 ft | 127 kts | 223° |
| 2026-05-04 16:19 | 43.69405 | -79.56969 | 1149 ft | 125 kts | 225° |
| 2026-05-04 16:19 | 43.68204 | -79.58739 | 831 ft | 129 kts | 223° |
| 2026-05-04 16:20 | 43.66574 | -79.61113 | 556 ft | 58 kts | 227° |
| 2026-05-04 16:20 | 43.66376 | -79.61642 | 554 ft | 20 kts | 270° |
| 2026-05-04 16:21 | 43.66639 | -79.61894 | 560 ft | 10 kts | 46° |
| 2026-05-04 16:22 | 43.66823 | -79.61627 | 562 ft | 21 kts | 46° |
| 2026-05-04 16:22 | 43.67097 | -79.61235 | 562 ft | 17 kts | 33° |
| 2026-05-04 16:23 | 43.67361 | -79.61375 | 561 ft | 13 kts | 323° |
| 2026-05-04 16:24 | 43.67847 | -79.62009 | 559 ft | 24 kts | 317° |
| 2026-05-04 16:25 | 43.68063 | -79.61821 | 566 ft | 21 kts | 46° |
| 2026-05-04 16:26 | 43.68274 | -79.61753 | 560 ft | 8 kts | 54° |
| 2026-05-04 16:26 | 43.68285 | -79.61682 | 559 ft | 0 kts | 82° |